sensor_id;sensor_type;location;lat;lon;timestamp;P1;durP1;ratioP1;P2;durP2;ratioP2
68976;SDS011;56029;52.568;13.588;2023-01-05T00:01:38;5.82;;;2.20;;
68976;SDS011;56029;52.568;13.588;2023-01-05T00:04:03;6.47;;;1.60;;
68976;SDS011;56029;52.568;13.588;2023-01-05T00:06:30;6.07;;;2.20;;
68976;SDS011;56029;52.568;13.588;2023-01-05T00:08:57;7.80;;;2.03;;
68976;SDS011;56029;52.568;13.588;2023-01-05T00:11:23;5.63;;;1.83;;
68976;SDS011;56029;52.568;13.588;2023-01-05T00:14:15;4.33;;;1.50;;
68976;SDS011;56029;52.568;13.588;2023-01-05T00:17:02;5.38;;;1.85;;
68976;SDS011;56029;52.568;13.588;2023-01-05T00:19:46;8.27;;;1.95;;
68976;SDS011;56029;52.568;13.588;2023-01-05T00:22:31;4.63;;;1.75;;
68976;SDS011;56029;52.568;13.588;2023-01-05T00:25:10;6.03;;;1.80;;
68976;SDS011;56029;52.568;13.588;2023-01-05T00:27:38;5.00;;;1.33;;
68976;SDS011;56029;52.568;13.588;2023-01-05T00:30:05;4.28;;;1.10;;
68976;SDS011;56029;52.568;13.588;2023-01-05T00:32:32;4.55;;;1.58;;
68976;SDS011;56029;52.568;13.588;2023-01-05T00:34:58;4.37;;;1.60;;
68976;SDS011;56029;52.568;13.588;2023-01-05T00:37:25;4.43;;;1.73;;
68976;SDS011;56029;52.568;13.588;2023-01-05T00:39:52;4.47;;;1.48;;
68976;SDS011;56029;52.568;13.588;2023-01-05T00:42:18;5.18;;;1.75;;
68976;SDS011;56029;52.568;13.588;2023-01-05T00:44:44;6.80;;;1.60;;
68976;SDS011;56029;52.568;13.588;2023-01-05T00:47:10;4.45;;;1.10;;
68976;SDS011;56029;52.568;13.588;2023-01-05T00:49:35;4.97;;;1.40;;
68976;SDS011;56029;52.568;13.588;2023-01-05T00:52:01;10.10;;;2.10;;
68976;SDS011;56029;52.568;13.588;2023-01-05T00:54:27;7.97;;;1.70;;
68976;SDS011;56029;52.568;13.588;2023-01-05T00:56:52;5.88;;;1.75;;
68976;SDS011;56029;52.568;13.588;2023-01-05T00:59:18;6.37;;;1.50;;
68976;SDS011;56029;52.568;13.588;2023-01-05T01:01:44;5.07;;;1.58;;
68976;SDS011;56029;52.568;13.588;2023-01-05T01:04:11;6.90;;;1.80;;
68976;SDS011;56029;52.568;13.588;2023-01-05T01:06:37;4.25;;;1.38;;
68976;SDS011;56029;52.568;13.588;2023-01-05T01:09:02;7.03;;;1.50;;
68976;SDS011;56029;52.568;13.588;2023-01-05T01:11:28;7.10;;;1.60;;
68976;SDS011;56029;52.568;13.588;2023-01-05T01:13:54;6.37;;;1.47;;
68976;SDS011;56029;52.568;13.588;2023-01-05T01:16:19;6.03;;;1.70;;
68976;SDS011;56029;52.568;13.588;2023-01-05T01:18:45;6.07;;;1.47;;
68976;SDS011;56029;52.568;13.588;2023-01-05T01:21:11;8.13;;;1.70;;
68976;SDS011;56029;52.568;13.588;2023-01-05T01:23:36;11.53;;;2.03;;
68976;SDS011;56029;52.568;13.588;2023-01-05T01:26:03;6.13;;;1.52;;
68976;SDS011;56029;52.568;13.588;2023-01-05T01:28:30;6.28;;;1.52;;
68976;SDS011;56029;52.568;13.588;2023-01-05T01:30:55;7.17;;;1.67;;
68976;SDS011;56029;52.568;13.588;2023-01-05T01:33:21;6.93;;;1.55;;
68976;SDS011;56029;52.568;13.588;2023-01-05T01:35:47;6.23;;;1.70;;
68976;SDS011;56029;52.568;13.588;2023-01-05T01:38:12;6.70;;;1.80;;
68976;SDS011;56029;52.568;13.588;2023-01-05T01:40:41;6.80;;;1.63;;
68976;SDS011;56029;52.568;13.588;2023-01-05T01:43:13;6.35;;;1.60;;
68976;SDS011;56029;52.568;13.588;2023-01-05T01:45:40;7.28;;;1.77;;
68976;SDS011;56029;52.568;13.588;2023-01-05T01:48:05;8.93;;;1.80;;
68976;SDS011;56029;52.568;13.588;2023-01-05T01:50:34;7.18;;;1.85;;
68976;SDS011;56029;52.568;13.588;2023-01-05T01:53:07;8.02;;;2.40;;
68976;SDS011;56029;52.568;13.588;2023-01-05T01:55:36;7.85;;;1.80;;
68976;SDS011;56029;52.568;13.588;2023-01-05T01:58:03;6.93;;;1.63;;
68976;SDS011;56029;52.568;13.588;2023-01-05T02:00:32;7.78;;;1.70;;
68976;SDS011;56029;52.568;13.588;2023-01-05T02:02:58;6.63;;;1.80;;
68976;SDS011;56029;52.568;13.588;2023-01-05T02:05:27;7.30;;;1.57;;
68976;SDS011;56029;52.568;13.588;2023-01-05T02:07:54;6.78;;;1.80;;
68976;SDS011;56029;52.568;13.588;2023-01-05T02:10:33;10.23;;;2.05;;
68976;SDS011;56029;52.568;13.588;2023-01-05T02:13:36;6.65;;;1.70;;
68976;SDS011;56029;52.568;13.588;2023-01-05T02:16:31;6.07;;;1.50;;
68976;SDS011;56029;52.568;13.588;2023-01-05T02:19:15;5.13;;;1.50;;
68976;SDS011;56029;52.568;13.588;2023-01-05T02:24:51;4.90;;;1.48;;
68976;SDS011;56029;52.568;13.588;2023-01-05T02:27:34;6.38;;;1.90;;
68976;SDS011;56029;52.568;13.588;2023-01-05T02:30:11;5.87;;;1.60;;
68976;SDS011;56029;52.568;13.588;2023-01-05T02:35:47;5.28;;;1.45;;
68976;SDS011;56029;52.568;13.588;2023-01-05T02:38:26;7.68;;;2.28;;
68976;SDS011;56029;52.568;13.588;2023-01-05T02:40:57;4.45;;;1.25;;
68976;SDS011;56029;52.568;13.588;2023-01-05T02:43:28;6.60;;;1.57;;
68976;SDS011;56029;52.568;13.588;2023-01-05T02:45:53;6.30;;;1.50;;
68976;SDS011;56029;52.568;13.588;2023-01-05T02:48:20;9.43;;;1.80;;
68976;SDS011;56029;52.568;13.588;2023-01-05T02:53:32;4.15;;;1.27;;
68976;SDS011;56029;52.568;13.588;2023-01-05T02:56:05;4.75;;;1.50;;
68976;SDS011;56029;52.568;13.588;2023-01-05T02:58:57;6.18;;;1.90;;
68976;SDS011;56029;52.568;13.588;2023-01-05T03:01:28;5.28;;;1.60;;
68976;SDS011;56029;52.568;13.588;2023-01-05T03:04:04;3.53;;;1.10;;
68976;SDS011;56029;52.568;13.588;2023-01-05T03:06:44;6.88;;;1.75;;
68976;SDS011;56029;52.568;13.588;2023-01-05T03:09:28;6.95;;;1.52;;
68976;SDS011;56029;52.568;13.588;2023-01-05T03:12:05;6.25;;;1.50;;
68976;SDS011;56029;52.568;13.588;2023-01-05T03:14:58;5.93;;;1.80;;
68976;SDS011;56029;52.568;13.588;2023-01-05T03:17:41;8.07;;;1.60;;
68976;SDS011;56029;52.568;13.588;2023-01-05T03:20:10;6.55;;;1.80;;
68976;SDS011;56029;52.568;13.588;2023-01-05T03:22:38;4.93;;;1.65;;
68976;SDS011;56029;52.568;13.588;2023-01-05T03:25:25;5.40;;;1.85;;
68976;SDS011;56029;52.568;13.588;2023-01-05T03:28:15;5.40;;;1.30;;
68976;SDS011;56029;52.568;13.588;2023-01-05T03:31:07;4.17;;;1.30;;
68976;SDS011;56029;52.568;13.588;2023-01-05T03:34:10;6.53;;;1.70;;
68976;SDS011;56029;52.568;13.588;2023-01-05T03:37:09;6.57;;;1.48;;
68976;SDS011;56029;52.568;13.588;2023-01-05T03:39:39;4.80;;;1.50;;
68976;SDS011;56029;52.568;13.588;2023-01-05T03:42:07;3.85;;;1.20;;
68976;SDS011;56029;52.568;13.588;2023-01-05T03:44:36;5.10;;;1.63;;
68976;SDS011;56029;52.568;13.588;2023-01-05T03:47:03;7.20;;;1.70;;
68976;SDS011;56029;52.568;13.588;2023-01-05T03:49:29;7.63;;;1.50;;
68976;SDS011;56029;52.568;13.588;2023-01-05T03:51:55;5.37;;;1.50;;
68976;SDS011;56029;52.568;13.588;2023-01-05T03:54:20;5.65;;;1.38;;
68976;SDS011;56029;52.568;13.588;2023-01-05T03:56:46;7.43;;;1.60;;
68976;SDS011;56029;52.568;13.588;2023-01-05T03:59:11;5.63;;;1.40;;
68976;SDS011;56029;52.568;13.588;2023-01-05T04:01:37;7.15;;;1.80;;
68976;SDS011;56029;52.568;13.588;2023-01-05T04:04:02;5.07;;;1.80;;
68976;SDS011;56029;52.568;13.588;2023-01-05T04:06:28;6.83;;;1.63;;
68976;SDS011;56029;52.568;13.588;2023-01-05T04:08:53;5.07;;;1.60;;
68976;SDS011;56029;52.568;13.588;2023-01-05T04:11:20;4.67;;;1.50;;
68976;SDS011;56029;52.568;13.588;2023-01-05T04:13:47;5.13;;;1.75;;
68976;SDS011;56029;52.568;13.588;2023-01-05T04:16:13;4.38;;;1.10;;
68976;SDS011;56029;52.568;13.588;2023-01-05T04:18:38;7.57;;;1.53;;
68976;SDS011;56029;52.568;13.588;2023-01-05T04:21:05;5.43;;;1.42;;
68976;SDS011;56029;52.568;13.588;2023-01-05T04:23:31;6.90;;;1.70;;
68976;SDS011;56029;52.568;13.588;2023-01-05T04:25:57;6.20;;;1.80;;
68976;SDS011;56029;52.568;13.588;2023-01-05T04:28:22;6.73;;;1.77;;
68976;SDS011;56029;52.568;13.588;2023-01-05T04:30:49;6.50;;;1.60;;
68976;SDS011;56029;52.568;13.588;2023-01-05T04:33:16;8.67;;;1.70;;
68976;SDS011;56029;52.568;13.588;2023-01-05T04:35:42;5.35;;;1.90;;
68976;SDS011;56029;52.568;13.588;2023-01-05T04:38:07;8.30;;;2.13;;
68976;SDS011;56029;52.568;13.588;2023-01-05T04:40:33;6.50;;;1.57;;
68976;SDS011;56029;52.568;13.588;2023-01-05T04:42:58;3.63;;;1.40;;
68976;SDS011;56029;52.568;13.588;2023-01-05T04:45:24;4.82;;;1.10;;
68976;SDS011;56029;52.568;13.588;2023-01-05T04:47:51;7.80;;;1.40;;
68976;SDS011;56029;52.568;13.588;2023-01-05T04:50:17;6.13;;;1.90;;
68976;SDS011;56029;52.568;13.588;2023-01-05T04:52:42;7.82;;;1.73;;
68976;SDS011;56029;52.568;13.588;2023-01-05T04:55:08;7.33;;;1.50;;
68976;SDS011;56029;52.568;13.588;2023-01-05T04:57:34;4.70;;;1.40;;
68976;SDS011;56029;52.568;13.588;2023-01-05T05:00:00;7.10;;;1.77;;
68976;SDS011;56029;52.568;13.588;2023-01-05T05:02:26;5.30;;;1.40;;
68976;SDS011;56029;52.568;13.588;2023-01-05T05:04:52;6.70;;;1.90;;
68976;SDS011;56029;52.568;13.588;2023-01-05T05:07:17;6.18;;;1.83;;
68976;SDS011;56029;52.568;13.588;2023-01-05T05:09:43;6.03;;;1.83;;
68976;SDS011;56029;52.568;13.588;2023-01-05T05:12:08;5.43;;;1.77;;
68976;SDS011;56029;52.568;13.588;2023-01-05T05:14:34;7.53;;;1.42;;
68976;SDS011;56029;52.568;13.588;2023-01-05T05:16:59;7.00;;;1.80;;
68976;SDS011;56029;52.568;13.588;2023-01-05T05:19:25;7.38;;;2.15;;
68976;SDS011;56029;52.568;13.588;2023-01-05T05:21:51;4.03;;;1.70;;
68976;SDS011;56029;52.568;13.588;2023-01-05T05:24:16;8.60;;;2.17;;
68976;SDS011;56029;52.568;13.588;2023-01-05T05:26:42;8.15;;;1.60;;
68976;SDS011;56029;52.568;13.588;2023-01-05T05:29:07;4.53;;;1.50;;
68976;SDS011;56029;52.568;13.588;2023-01-05T05:31:33;6.40;;;1.50;;
68976;SDS011;56029;52.568;13.588;2023-01-05T05:33:59;4.55;;;1.10;;
68976;SDS011;56029;52.568;13.588;2023-01-05T05:36:24;2.60;;;1.00;;
68976;SDS011;56029;52.568;13.588;2023-01-05T05:38:50;3.88;;;1.00;;
68976;SDS011;56029;52.568;13.588;2023-01-05T05:41:15;2.87;;;0.80;;
68976;SDS011;56029;52.568;13.588;2023-01-05T05:43:41;4.07;;;1.00;;
68976;SDS011;56029;52.568;13.588;2023-01-05T05:46:06;2.83;;;1.30;;
68976;SDS011;56029;52.568;13.588;2023-01-05T05:48:32;4.20;;;1.13;;
68976;SDS011;56029;52.568;13.588;2023-01-05T05:50:57;5.13;;;1.53;;
68976;SDS011;56029;52.568;13.588;2023-01-05T05:53:23;2.83;;;1.10;;
68976;SDS011;56029;52.568;13.588;2023-01-05T05:55:49;2.13;;;1.10;;
68976;SDS011;56029;52.568;13.588;2023-01-05T05:58:18;2.75;;;1.05;;
68976;SDS011;56029;52.568;13.588;2023-01-05T06:00:44;2.53;;;1.00;;
68976;SDS011;56029;52.568;13.588;2023-01-05T06:03:10;1.33;;;0.75;;
68976;SDS011;56029;52.568;13.588;2023-01-05T06:05:36;2.15;;;0.90;;
68976;SDS011;56029;52.568;13.588;2023-01-05T06:08:02;2.67;;;0.98;;
68976;SDS011;56029;52.568;13.588;2023-01-05T06:10:28;1.93;;;0.70;;
68976;SDS011;56029;52.568;13.588;2023-01-05T06:12:54;2.28;;;0.70;;
68976;SDS011;56029;52.568;13.588;2023-01-05T06:15:20;1.60;;;0.60;;
68976;SDS011;56029;52.568;13.588;2023-01-05T06:17:47;0.98;;;0.50;;
68976;SDS011;56029;52.568;13.588;2023-01-05T06:20:13;1.75;;;0.70;;
68976;SDS011;56029;52.568;13.588;2023-01-05T06:22:41;2.13;;;0.70;;
68976;SDS011;56029;52.568;13.588;2023-01-05T06:25:07;0.95;;;0.50;;
68976;SDS011;56029;52.568;13.588;2023-01-05T06:27:33;1.10;;;0.70;;
68976;SDS011;56029;52.568;13.588;2023-01-05T06:29:59;1.77;;;0.57;;
68976;SDS011;56029;52.568;13.588;2023-01-05T06:32:24;1.17;;;0.80;;
68976;SDS011;56029;52.568;13.588;2023-01-05T06:34:50;0.93;;;0.60;;
68976;SDS011;56029;52.568;13.588;2023-01-05T06:37:16;1.85;;;0.75;;
68976;SDS011;56029;52.568;13.588;2023-01-05T06:39:41;1.00;;;0.70;;
68976;SDS011;56029;52.568;13.588;2023-01-05T06:42:07;1.35;;;0.60;;
68976;SDS011;56029;52.568;13.588;2023-01-05T06:44:32;3.07;;;0.70;;
68976;SDS011;56029;52.568;13.588;2023-01-05T06:46:58;1.13;;;0.60;;
68976;SDS011;56029;52.568;13.588;2023-01-05T06:49:23;2.08;;;0.60;;
68976;SDS011;56029;52.568;13.588;2023-01-05T06:51:49;0.80;;;0.40;;
68976;SDS011;56029;52.568;13.588;2023-01-05T06:54:14;1.10;;;0.70;;
68976;SDS011;56029;52.568;13.588;2023-01-05T06:56:40;1.45;;;0.70;;
68976;SDS011;56029;52.568;13.588;2023-01-05T06:59:05;1.67;;;0.80;;
68976;SDS011;56029;52.568;13.588;2023-01-05T07:01:34;0.70;;;0.50;;
68976;SDS011;56029;52.568;13.588;2023-01-05T07:03:59;2.05;;;0.60;;
68976;SDS011;56029;52.568;13.588;2023-01-05T07:06:25;2.65;;;0.80;;
68976;SDS011;56029;52.568;13.588;2023-01-05T07:08:50;2.53;;;0.80;;
68976;SDS011;56029;52.568;13.588;2023-01-05T07:11:16;0.88;;;0.60;;
68976;SDS011;56029;52.568;13.588;2023-01-05T07:13:41;2.27;;;0.80;;
68976;SDS011;56029;52.568;13.588;2023-01-05T07:16:12;1.40;;;0.68;;
68976;SDS011;56029;52.568;13.588;2023-01-05T07:18:37;1.47;;;0.80;;
68976;SDS011;56029;52.568;13.588;2023-01-05T07:21:03;2.43;;;0.80;;
68976;SDS011;56029;52.568;13.588;2023-01-05T07:23:28;1.08;;;0.60;;
68976;SDS011;56029;52.568;13.588;2023-01-05T07:25:54;2.03;;;0.80;;
68976;SDS011;56029;52.568;13.588;2023-01-05T07:28:19;1.15;;;0.70;;
68976;SDS011;56029;52.568;13.588;2023-01-05T07:30:51;1.17;;;0.60;;
68976;SDS011;56029;52.568;13.588;2023-01-05T07:33:17;0.60;;;0.60;;
68976;SDS011;56029;52.568;13.588;2023-01-05T07:35:43;3.10;;;0.77;;
68976;SDS011;56029;52.568;13.588;2023-01-05T07:38:08;1.00;;;0.67;;
68976;SDS011;56029;52.568;13.588;2023-01-05T07:40:34;1.07;;;0.70;;
68976;SDS011;56029;52.568;13.588;2023-01-05T07:43:00;1.98;;;0.70;;
68976;SDS011;56029;52.568;13.588;2023-01-05T07:45:26;0.93;;;0.70;;
68976;SDS011;56029;52.568;13.588;2023-01-05T07:47:51;1.20;;;0.60;;
68976;SDS011;56029;52.568;13.588;2023-01-05T07:50:20;1.57;;;0.77;;
68976;SDS011;56029;52.568;13.588;2023-01-05T07:52:45;0.60;;;0.60;;
68976;SDS011;56029;52.568;13.588;2023-01-05T07:55:11;1.02;;;0.68;;
68976;SDS011;56029;52.568;13.588;2023-01-05T07:57:36;1.43;;;0.70;;
68976;SDS011;56029;52.568;13.588;2023-01-05T08:00:02;0.60;;;0.60;;
68976;SDS011;56029;52.568;13.588;2023-01-05T08:02:29;1.37;;;0.60;;
68976;SDS011;56029;52.568;13.588;2023-01-05T08:04:55;3.20;;;0.82;;
68976;SDS011;56029;52.568;13.588;2023-01-05T08:07:20;1.10;;;0.60;;
68976;SDS011;56029;52.568;13.588;2023-01-05T08:09:46;1.90;;;0.70;;
68976;SDS011;56029;52.568;13.588;2023-01-05T08:12:30;1.65;;;1.10;;
68976;SDS011;56029;52.568;13.588;2023-01-05T08:14:56;0.50;;;0.50;;
68976;SDS011;56029;52.568;13.588;2023-01-05T08:17:21;1.65;;;0.70;;
68976;SDS011;56029;52.568;13.588;2023-01-05T08:19:47;4.73;;;0.80;;
68976;SDS011;56029;52.568;13.588;2023-01-05T08:22:12;1.23;;;0.70;;
68976;SDS011;56029;52.568;13.588;2023-01-05T08:24:38;1.17;;;0.53;;
68976;SDS011;56029;52.568;13.588;2023-01-05T08:27:04;1.37;;;0.70;;
68976;SDS011;56029;52.568;13.588;2023-01-05T08:29:29;1.02;;;0.60;;
68976;SDS011;56029;52.568;13.588;2023-01-05T08:31:55;0.50;;;0.50;;
68976;SDS011;56029;52.568;13.588;2023-01-05T08:34:24;1.10;;;0.60;;
68976;SDS011;56029;52.568;13.588;2023-01-05T08:36:49;0.90;;;0.60;;
68976;SDS011;56029;52.568;13.588;2023-01-05T08:39:15;1.25;;;0.70;;
68976;SDS011;56029;52.568;13.588;2023-01-05T08:41:40;0.90;;;0.53;;
68976;SDS011;56029;52.568;13.588;2023-01-05T08:44:12;1.57;;;0.70;;
68976;SDS011;56029;52.568;13.588;2023-01-05T08:46:38;0.85;;;0.50;;
68976;SDS011;56029;52.568;13.588;2023-01-05T08:49:05;1.48;;;0.60;;
68976;SDS011;56029;52.568;13.588;2023-01-05T08:51:32;1.02;;;0.50;;
68976;SDS011;56029;52.568;13.588;2023-01-05T08:53:58;0.98;;;0.70;;
68976;SDS011;56029;52.568;13.588;2023-01-05T08:56:23;0.63;;;0.50;;
68976;SDS011;56029;52.568;13.588;2023-01-05T08:58:51;0.63;;;0.60;;
68976;SDS011;56029;52.568;13.588;2023-01-05T09:01:18;1.50;;;0.70;;
68976;SDS011;56029;52.568;13.588;2023-01-05T09:03:46;0.55;;;0.55;;
68976;SDS011;56029;52.568;13.588;2023-01-05T09:06:12;2.07;;;0.60;;
68976;SDS011;56029;52.568;13.588;2023-01-05T09:08:39;0.65;;;0.50;;
68976;SDS011;56029;52.568;13.588;2023-01-05T09:11:13;1.60;;;0.60;;
68976;SDS011;56029;52.568;13.588;2023-01-05T09:13:40;1.10;;;0.60;;
68976;SDS011;56029;52.568;13.588;2023-01-05T09:16:12;2.13;;;0.68;;
68976;SDS011;56029;52.568;13.588;2023-01-05T09:18:39;1.37;;;0.60;;
68976;SDS011;56029;52.568;13.588;2023-01-05T09:21:06;0.88;;;0.55;;
68976;SDS011;56029;52.568;13.588;2023-01-05T09:23:32;0.90;;;0.63;;
68976;SDS011;56029;52.568;13.588;2023-01-05T09:25:59;2.13;;;0.75;;
68976;SDS011;56029;52.568;13.588;2023-01-05T09:28:27;2.35;;;0.70;;
68976;SDS011;56029;52.568;13.588;2023-01-05T09:30:52;0.70;;;0.50;;
68976;SDS011;56029;52.568;13.588;2023-01-05T09:33:18;1.53;;;0.77;;
68976;SDS011;56029;52.568;13.588;2023-01-05T09:35:43;1.65;;;0.70;;
68976;SDS011;56029;52.568;13.588;2023-01-05T09:38:17;0.97;;;0.50;;
68976;SDS011;56029;52.568;13.588;2023-01-05T09:40:43;0.73;;;0.50;;
68976;SDS011;56029;52.568;13.588;2023-01-05T09:43:11;1.43;;;0.50;;
68976;SDS011;56029;52.568;13.588;2023-01-05T09:45:41;1.67;;;0.70;;
68976;SDS011;56029;52.568;13.588;2023-01-05T09:48:08;3.08;;;0.70;;
68976;SDS011;56029;52.568;13.588;2023-01-05T09:50:37;1.10;;;0.60;;
68976;SDS011;56029;52.568;13.588;2023-01-05T09:53:03;1.50;;;0.70;;
68976;SDS011;56029;52.568;13.588;2023-01-05T09:55:29;1.45;;;0.70;;
68976;SDS011;56029;52.568;13.588;2023-01-05T09:58:00;1.58;;;0.70;;
68976;SDS011;56029;52.568;13.588;2023-01-05T10:00:30;2.10;;;0.90;;
68976;SDS011;56029;52.568;13.588;2023-01-05T10:03:01;2.90;;;0.70;;
68976;SDS011;56029;52.568;13.588;2023-01-05T10:05:31;1.73;;;0.60;;
68976;SDS011;56029;52.568;13.588;2023-01-05T10:10:40;2.25;;;0.80;;
68976;SDS011;56029;52.568;13.588;2023-01-05T10:13:31;4.07;;;1.13;;
68976;SDS011;56029;52.568;13.588;2023-01-05T10:15:58;3.17;;;1.00;;
68976;SDS011;56029;52.568;13.588;2023-01-05T10:18:25;3.40;;;0.80;;
68976;SDS011;56029;52.568;13.588;2023-01-05T10:20:58;1.52;;;0.60;;
68976;SDS011;56029;52.568;13.588;2023-01-05T10:23:39;2.75;;;0.50;;
68976;SDS011;56029;52.568;13.588;2023-01-05T10:26:28;4.17;;;1.03;;
68976;SDS011;56029;52.568;13.588;2023-01-05T10:31:43;2.25;;;0.70;;
68976;SDS011;56029;52.568;13.588;2023-01-05T10:34:23;3.30;;;1.00;;
68976;SDS011;56029;52.568;13.588;2023-01-05T10:39:55;1.93;;;0.77;;
68976;SDS011;56029;52.568;13.588;2023-01-05T10:42:31;3.10;;;0.70;;
68976;SDS011;56029;52.568;13.588;2023-01-05T10:45:14;1.35;;;0.60;;
68976;SDS011;56029;52.568;13.588;2023-01-05T10:47:41;3.20;;;0.60;;
68976;SDS011;56029;52.568;13.588;2023-01-05T10:53:11;3.70;;;0.80;;
68976;SDS011;56029;52.568;13.588;2023-01-05T10:58:22;1.83;;;0.60;;
68976;SDS011;56029;52.568;13.588;2023-01-05T11:00:59;1.35;;;1.00;;
68976;SDS011;56029;52.568;13.588;2023-01-05T11:03:32;3.55;;;1.00;;
68976;SDS011;56029;52.568;13.588;2023-01-05T11:06:01;3.03;;;0.73;;
68976;SDS011;56029;52.568;13.588;2023-01-05T11:08:28;1.77;;;0.60;;
68976;SDS011;56029;52.568;13.588;2023-01-05T11:11:01;7.03;;;1.23;;
68976;SDS011;56029;52.568;13.588;2023-01-05T11:13:32;2.25;;;0.85;;
68976;SDS011;56029;52.568;13.588;2023-01-05T11:18:59;4.67;;;1.20;;
68976;SDS011;56029;52.568;13.588;2023-01-05T11:21:26;2.50;;;0.90;;
68976;SDS011;56029;52.568;13.588;2023-01-05T11:26:49;2.50;;;0.70;;
68976;SDS011;56029;52.568;13.588;2023-01-05T11:29:15;1.63;;;0.60;;
68976;SDS011;56029;52.568;13.588;2023-01-05T11:31:44;2.60;;;0.70;;
68976;SDS011;56029;52.568;13.588;2023-01-05T11:39:41;2.65;;;1.00;;
68976;SDS011;56029;52.568;13.588;2023-01-05T11:44:38;3.73;;;0.90;;
68976;SDS011;56029;52.568;13.588;2023-01-05T11:47:06;2.83;;;0.68;;
68976;SDS011;56029;52.568;13.588;2023-01-05T11:49:32;1.40;;;0.70;;
68976;SDS011;56029;52.568;13.588;2023-01-05T11:51:58;7.45;;;1.33;;
68976;SDS011;56029;52.568;13.588;2023-01-05T11:54:34;2.57;;;0.80;;
68976;SDS011;56029;52.568;13.588;2023-01-05T11:57:18;1.90;;;0.80;;
68976;SDS011;56029;52.568;13.588;2023-01-05T11:59:46;4.07;;;0.87;;
68976;SDS011;56029;52.568;13.588;2023-01-05T12:02:18;3.50;;;1.00;;
68976;SDS011;56029;52.568;13.588;2023-01-05T12:04:59;3.78;;;0.70;;
68976;SDS011;56029;52.568;13.588;2023-01-05T12:07:32;2.97;;;0.98;;
68976;SDS011;56029;52.568;13.588;2023-01-05T12:12:54;3.40;;;0.90;;
68976;SDS011;56029;52.568;13.588;2023-01-05T12:15:49;2.55;;;0.70;;
68976;SDS011;56029;52.568;13.588;2023-01-05T12:19:00;1.80;;;0.80;;
68976;SDS011;56029;52.568;13.588;2023-01-05T12:30:20;5.70;;;0.98;;
68976;SDS011;56029;52.568;13.588;2023-01-05T12:35:45;3.25;;;0.85;;
68976;SDS011;56029;52.568;13.588;2023-01-05T12:38:29;1.55;;;0.90;;
68976;SDS011;56029;52.568;13.588;2023-01-05T12:44:08;2.22;;;0.90;;
68976;SDS011;56029;52.568;13.588;2023-01-05T12:49:50;4.45;;;1.17;;
68976;SDS011;56029;52.568;13.588;2023-01-05T12:52:24;5.10;;;0.70;;
68976;SDS011;56029;52.568;13.588;2023-01-05T12:57:32;2.28;;;0.90;;
68976;SDS011;56029;52.568;13.588;2023-01-05T13:00:04;2.30;;;0.90;;
68976;SDS011;56029;52.568;13.588;2023-01-05T13:02:37;3.03;;;0.80;;
68976;SDS011;56029;52.568;13.588;2023-01-05T13:05:07;2.03;;;0.93;;
68976;SDS011;56029;52.568;13.588;2023-01-05T13:07:49;3.00;;;0.90;;
68976;SDS011;56029;52.568;13.588;2023-01-05T13:12:58;3.83;;;1.10;;
68976;SDS011;56029;52.568;13.588;2023-01-05T13:15:28;4.38;;;0.80;;
68976;SDS011;56029;52.568;13.588;2023-01-05T13:17:58;2.38;;;0.80;;
68976;SDS011;56029;52.568;13.588;2023-01-05T13:20:32;1.67;;;0.90;;
68976;SDS011;56029;52.568;13.588;2023-01-05T13:23:08;1.50;;;0.80;;
68976;SDS011;56029;52.568;13.588;2023-01-05T13:25:49;2.58;;;0.77;;
68976;SDS011;56029;52.568;13.588;2023-01-05T13:28:19;0.93;;;0.65;;
68976;SDS011;56029;52.568;13.588;2023-01-05T13:30:50;1.50;;;0.68;;
68976;SDS011;56029;52.568;13.588;2023-01-05T13:33:57;2.57;;;0.60;;
68976;SDS011;56029;52.568;13.588;2023-01-05T13:39:41;0.80;;;0.60;;
68976;SDS011;56029;52.568;13.588;2023-01-05T13:42:07;1.27;;;0.80;;
68976;SDS011;56029;52.568;13.588;2023-01-05T13:47:14;0.60;;;0.50;;
68976;SDS011;56029;52.568;13.588;2023-01-05T13:55:12;3.15;;;0.93;;
68976;SDS011;56029;52.568;13.588;2023-01-05T13:57:42;2.35;;;0.80;;
68976;SDS011;56029;52.568;13.588;2023-01-05T14:00:23;1.67;;;0.80;;
68976;SDS011;56029;52.568;13.588;2023-01-05T14:03:00;1.52;;;0.60;;
68976;SDS011;56029;52.568;13.588;2023-01-05T14:05:45;1.55;;;0.77;;
68976;SDS011;56029;52.568;13.588;2023-01-05T14:08:18;3.20;;;1.00;;
68976;SDS011;56029;52.568;13.588;2023-01-05T14:13:41;2.57;;;0.60;;
68976;SDS011;56029;52.568;13.588;2023-01-05T14:24:28;0.90;;;0.70;;
68976;SDS011;56029;52.568;13.588;2023-01-05T14:27:02;1.27;;;0.73;;
68976;SDS011;56029;52.568;13.588;2023-01-05T14:32:09;1.70;;;0.60;;
68976;SDS011;56029;52.568;13.588;2023-01-05T14:34:36;1.15;;;0.60;;
68976;SDS011;56029;52.568;13.588;2023-01-05T14:37:23;1.40;;;0.77;;
68976;SDS011;56029;52.568;13.588;2023-01-05T14:40:12;3.00;;;0.70;;
68976;SDS011;56029;52.568;13.588;2023-01-05T14:42:45;1.80;;;0.77;;
68976;SDS011;56029;52.568;13.588;2023-01-05T14:45:26;1.33;;;0.60;;
68976;SDS011;56029;52.568;13.588;2023-01-05T14:48:01;0.70;;;0.50;;
68976;SDS011;56029;52.568;13.588;2023-01-05T14:50:36;1.48;;;0.70;;
68976;SDS011;56029;52.568;13.588;2023-01-05T14:58:46;0.98;;;0.65;;
68976;SDS011;56029;52.568;13.588;2023-01-05T15:03:49;1.80;;;0.70;;
68976;SDS011;56029;52.568;13.588;2023-01-05T15:06:39;2.47;;;0.77;;
68976;SDS011;56029;52.568;13.588;2023-01-05T15:09:18;1.13;;;0.70;;
68976;SDS011;56029;52.568;13.588;2023-01-05T15:25:32;2.70;;;1.00;;
68976;SDS011;56029;52.568;13.588;2023-01-05T15:28:11;2.35;;;0.90;;
68976;SDS011;56029;52.568;13.588;2023-01-05T15:36:58;2.15;;;0.80;;
68976;SDS011;56029;52.568;13.588;2023-01-05T15:39:35;1.38;;;0.60;;
68976;SDS011;56029;52.568;13.588;2023-01-05T15:42:10;2.80;;;1.10;;
68976;SDS011;56029;52.568;13.588;2023-01-05T15:44:47;2.35;;;0.80;;
68976;SDS011;56029;52.568;13.588;2023-01-05T15:47:16;2.93;;;0.93;;
68976;SDS011;56029;52.568;13.588;2023-01-05T15:49:43;3.08;;;0.98;;
68976;SDS011;56029;52.568;13.588;2023-01-05T15:52:16;2.80;;;0.90;;
68976;SDS011;56029;52.568;13.588;2023-01-05T15:54:44;2.40;;;0.90;;
68976;SDS011;56029;52.568;13.588;2023-01-05T15:57:21;1.80;;;0.70;;
68976;SDS011;56029;52.568;13.588;2023-01-05T15:59:47;2.80;;;1.00;;
68976;SDS011;56029;52.568;13.588;2023-01-05T16:02:23;3.95;;;1.00;;
68976;SDS011;56029;52.568;13.588;2023-01-05T16:05:06;2.70;;;1.00;;
68976;SDS011;56029;52.568;13.588;2023-01-05T16:07:33;3.08;;;0.93;;
68976;SDS011;56029;52.568;13.588;2023-01-05T16:09:58;1.90;;;1.00;;
68976;SDS011;56029;52.568;13.588;2023-01-05T16:12:24;1.47;;;0.80;;
68976;SDS011;56029;52.568;13.588;2023-01-05T16:14:58;2.90;;;0.88;;
68976;SDS011;56029;52.568;13.588;2023-01-05T16:17:29;1.80;;;0.82;;
68976;SDS011;56029;52.568;13.588;2023-01-05T16:19:58;3.13;;;1.17;;
68976;SDS011;56029;52.568;13.588;2023-01-05T16:22:31;2.17;;;0.90;;
68976;SDS011;56029;52.568;13.588;2023-01-05T16:25:14;2.17;;;1.00;;
68976;SDS011;56029;52.568;13.588;2023-01-05T16:27:46;3.88;;;1.00;;
68976;SDS011;56029;52.568;13.588;2023-01-05T16:30:35;2.83;;;0.80;;
68976;SDS011;56029;52.568;13.588;2023-01-05T16:35:52;1.73;;;0.90;;
68976;SDS011;56029;52.568;13.588;2023-01-05T16:38:43;1.33;;;0.70;;
68976;SDS011;56029;52.568;13.588;2023-01-05T16:41:12;2.67;;;1.23;;
68976;SDS011;56029;52.568;13.588;2023-01-05T16:46:21;5.80;;;1.40;;
68976;SDS011;56029;52.568;13.588;2023-01-05T16:51:22;3.35;;;1.17;;
68976;SDS011;56029;52.568;13.588;2023-01-05T16:53:50;2.42;;;1.20;;
68976;SDS011;56029;52.568;13.588;2023-01-05T16:59:29;2.70;;;0.90;;